Lucybelle — WDI7423 — position and weather

sailwx.info

Track history (hours):
 
Tides and Currents Weather Stations Pressure Air Temp Water Temp Dewpoint Dewpoint Depression Visibility Wind Speed Wind Dir Waves Ship Positions

Lucybelle

Owner: Hall, Raymond B, Annville, PA. More information available from US FCC via Universal Licensing System and Coast Guard Vessel Documentation Center.

Last reported at 2017-Sep-21 18:10 UTC. Time now 2017-Oct-19 14:22 UTC.
Position N 39°01' W 076°28'.
Warning: this ship's position is 27 days out of date.

Length 13 m.

Type: Sailing vessel. MMSI: 367728570.

Date/timePositionNaut miles runAvg speedWind from/ knotsBaromVisibWave heightAir tempDewpointWater temp
2017-Sep-21 18:10N 39°01' W 076°28'0 1.4
2017-Sep-21 18:00N 39°00' W 076°28'2 3.7
2017-Sep-21 17:31N 38°59' W 076°26'2 4.1
2017-Sep-21 17:00N 38°57' W 076°26'2 3.9
2017-Sep-21 16:30N 38°55' W 076°26'2 4.0
2017-Sep-21 16:00N 38°53' W 076°25'1 2.7
2017-Sep-21 15:27N 38°52' W 076°25'2 4.1
2017-Sep-21 15:00N 38°52' W 076°27'2 3.5
2017-Sep-21 14:30N 38°52' W 076°29'2 3.5
2017-Sep-21 14:01N 38°51' W 076°31'1 0.1
2017-Sep-20 17:31N 38°50' W 076°32'0 0.0
2017-Sep-20 17:30N 38°50' W 076°32'1 2.4
2017-Sep-20 17:00N 38°51' W 076°31'2 4.1
2017-Sep-20 16:30N 38°52' W 076°29'2 4.6
2017-Sep-20 16:01N 38°54' W 076°29'2 3.7
2017-Sep-20 15:30N 38°56' W 076°31'0 0.0
2017-Sep-18 20:02N 38°56' W 076°31'0 5.5
2017-Sep-18 19:58N 38°55' W 076°30'2 4.3
2017-Sep-18 19:30N 38°54' W 076°28'3 2.9
2017-Sep-18 18:17N 38°56' W 076°25'  
Track history (hours):
 
Tides and Currents Weather Stations Pressure Air Temp Water Temp Dewpoint Dewpoint Depression Visibility Wind Speed Wind Dir Waves Ship Positions

Lucybelle

Owner: Hall, Raymond B, Annville, PA. More information available from US FCC via Universal Licensing System and Coast Guard Vessel Documentation Center.

Last reported at 2017-Sep-21 18:10 UTC. Time now 2017-Oct-19 14:22 UTC.
Position N 39°01' W 076°28'.
Warning: this ship's position is 27 days out of date.

Length 13 m.

Type: Sailing vessel. MMSI: 367728570.

Date/timePositionNaut miles runAvg speedWind from/ knotsBaromVisibWave heightAir tempDewpointWater temp
2017-Sep-21 18:10N 39°01' W 076°28'0 1.4
2017-Sep-21 18:00N 39°00' W 076°28'2 3.7
2017-Sep-21 17:31N 38°59' W 076°26'2 4.1
2017-Sep-21 17:00N 38°57' W 076°26'2 3.9
2017-Sep-21 16:30N 38°55' W 076°26'2 4.0
2017-Sep-21 16:00N 38°53' W 076°25'1 2.7
2017-Sep-21 15:27N 38°52' W 076°25'2 4.1
2017-Sep-21 15:00N 38°52' W 076°27'2 3.5
2017-Sep-21 14:30N 38°52' W 076°29'2 3.5
2017-Sep-21 14:01N 38°51' W 076°31'1 0.1
2017-Sep-20 17:31N 38°50' W 076°32'0 0.0
2017-Sep-20 17:30N 38°50' W 076°32'1 2.4
2017-Sep-20 17:00N 38°51' W 076°31'2 4.1
2017-Sep-20 16:30N 38°52' W 076°29'2 4.6
2017-Sep-20 16:01N 38°54' W 076°29'2 3.7
2017-Sep-20 15:30N 38°56' W 076°31'0 0.0
2017-Sep-18 20:02N 38°56' W 076°31'0 5.5
2017-Sep-18 19:58N 38°55' W 076°30'2 4.3
2017-Sep-18 19:30N 38°54' W 076°28'3 2.9
2017-Sep-18 18:17N 38°56' W 076°25'  

Dump ship's entire track history